sensor_id;sensor_type;location;lat;lon;timestamp;temperature;humidity
21811;DHT22;11067;48.788;9.208;2023-07-20T00:01:24;20.80;99.90
21811;DHT22;11067;48.788;9.208;2023-07-20T00:03:50;20.80;99.90
21811;DHT22;11067;48.788;9.208;2023-07-20T00:06:24;20.70;99.90
21811;DHT22;11067;48.788;9.208;2023-07-20T00:08:50;20.70;99.90
21811;DHT22;11067;48.788;9.208;2023-07-20T00:11:16;20.60;99.90
21811;DHT22;11067;48.788;9.208;2023-07-20T00:13:42;20.60;99.90
21811;DHT22;11067;48.788;9.208;2023-07-20T00:16:07;20.60;99.90
21811;DHT22;11067;48.788;9.208;2023-07-20T00:18:33;20.50;99.90
21811;DHT22;11067;48.788;9.208;2023-07-20T00:20:59;20.40;99.90
21811;DHT22;11067;48.788;9.208;2023-07-20T00:23:27;20.40;99.90
21811;DHT22;11067;48.788;9.208;2023-07-20T00:25:53;20.40;99.90
21811;DHT22;11067;48.788;9.208;2023-07-20T00:28:19;20.40;99.90
21811;DHT22;11067;48.788;9.208;2023-07-20T00:30:44;20.40;99.90
21811;DHT22;11067;48.788;9.208;2023-07-20T00:33:11;20.30;99.90
21811;DHT22;11067;48.788;9.208;2023-07-20T00:35:37;20.20;99.90
21811;DHT22;11067;48.788;9.208;2023-07-20T00:38:04;20.30;99.90
21811;DHT22;11067;48.788;9.208;2023-07-20T00:40:38;20.20;99.90
21811;DHT22;11067;48.788;9.208;2023-07-20T00:43:04;20.20;99.90
21811;DHT22;11067;48.788;9.208;2023-07-20T00:45:30;20.10;99.90
21811;DHT22;11067;48.788;9.208;2023-07-20T00:47:57;20.10;99.90
21811;DHT22;11067;48.788;9.208;2023-07-20T00:50:24;20.10;99.90
21811;DHT22;11067;48.788;9.208;2023-07-20T00:52:49;20.10;99.90
21811;DHT22;11067;48.788;9.208;2023-07-20T00:55:15;20.20;99.90
21811;DHT22;11067;48.788;9.208;2023-07-20T00:57:41;20.10;99.90
21811;DHT22;11067;48.788;9.208;2023-07-20T01:00:07;20.10;99.90
21811;DHT22;11067;48.788;9.208;2023-07-20T01:02:33;20.00;99.90
21811;DHT22;11067;48.788;9.208;2023-07-20T01:04:58;20.00;99.90
21811;DHT22;11067;48.788;9.208;2023-07-20T01:07:32;19.90;99.90
21811;DHT22;11067;48.788;9.208;2023-07-20T01:12:41;19.90;99.90
21811;DHT22;11067;48.788;9.208;2023-07-20T01:15:08;19.80;99.90
21811;DHT22;11067;48.788;9.208;2023-07-20T01:17:34;19.80;99.90
21811;DHT22;11067;48.788;9.208;2023-07-20T01:20:00;19.80;99.90
21811;DHT22;11067;48.788;9.208;2023-07-20T01:28:57;19.80;99.90
21811;DHT22;11067;48.788;9.208;2023-07-20T01:31:30;19.60;99.90
21811;DHT22;11067;48.788;9.208;2023-07-20T01:33:58;19.60;99.90
21811;DHT22;11067;48.788;9.208;2023-07-20T01:36:28;19.50;99.90
21811;DHT22;11067;48.788;9.208;2023-07-20T01:38:54;19.50;99.90
21811;DHT22;11067;48.788;9.208;2023-07-20T01:41:21;19.50;99.90
21811;DHT22;11067;48.788;9.208;2023-07-20T01:43:47;19.50;99.90
21811;DHT22;11067;48.788;9.208;2023-07-20T01:46:12;19.40;99.90
21811;DHT22;11067;48.788;9.208;2023-07-20T01:48:38;19.40;99.90
21811;DHT22;11067;48.788;9.208;2023-07-20T01:51:05;19.40;99.90
21811;DHT22;11067;48.788;9.208;2023-07-20T01:53:31;19.30;99.90
21811;DHT22;11067;48.788;9.208;2023-07-20T01:55:57;19.30;99.90
21811;DHT22;11067;48.788;9.208;2023-07-20T01:58:22;19.30;99.90
21811;DHT22;11067;48.788;9.208;2023-07-20T02:00:48;19.20;99.90
21811;DHT22;11067;48.788;9.208;2023-07-20T02:03:14;19.20;99.90
21811;DHT22;11067;48.788;9.208;2023-07-20T02:05:42;19.10;99.90
21811;DHT22;11067;48.788;9.208;2023-07-20T02:08:07;19.00;99.90
21811;DHT22;11067;48.788;9.208;2023-07-20T02:10:33;19.10;99.90
21811;DHT22;11067;48.788;9.208;2023-07-20T02:12:59;19.00;99.90
21811;DHT22;11067;48.788;9.208;2023-07-20T02:15:24;19.00;99.90
21811;DHT22;11067;48.788;9.208;2023-07-20T02:17:50;19.00;99.90
21811;DHT22;11067;48.788;9.208;2023-07-20T02:20:16;18.90;99.90
21811;DHT22;11067;48.788;9.208;2023-07-20T02:22:41;18.90;99.90
21811;DHT22;11067;48.788;9.208;2023-07-20T02:25:08;19.00;99.90
21811;DHT22;11067;48.788;9.208;2023-07-20T02:27:34;18.90;99.90
21811;DHT22;11067;48.788;9.208;2023-07-20T02:30:00;18.90;99.90
21811;DHT22;11067;48.788;9.208;2023-07-20T02:32:25;18.90;99.90
21811;DHT22;11067;48.788;9.208;2023-07-20T02:34:51;18.80;99.90
21811;DHT22;11067;48.788;9.208;2023-07-20T02:37:17;18.70;99.90
21811;DHT22;11067;48.788;9.208;2023-07-20T02:39:42;18.70;99.90
21811;DHT22;11067;48.788;9.208;2023-07-20T02:42:08;18.60;99.90
21811;DHT22;11067;48.788;9.208;2023-07-20T02:44:34;18.60;99.90
21811;DHT22;11067;48.788;9.208;2023-07-20T02:46:59;18.60;99.90
21811;DHT22;11067;48.788;9.208;2023-07-20T02:49:25;18.50;99.90
21811;DHT22;11067;48.788;9.208;2023-07-20T02:51:50;18.50;99.90
21811;DHT22;11067;48.788;9.208;2023-07-20T02:54:16;18.50;99.90
21811;DHT22;11067;48.788;9.208;2023-07-20T02:56:41;18.40;99.90
21811;DHT22;11067;48.788;9.208;2023-07-20T02:59:07;18.40;99.90
21811;DHT22;11067;48.788;9.208;2023-07-20T03:01:33;18.40;99.90
21811;DHT22;11067;48.788;9.208;2023-07-20T03:03:58;18.30;99.90
21811;DHT22;11067;48.788;9.208;2023-07-20T03:06:24;18.30;99.90
21811;DHT22;11067;48.788;9.208;2023-07-20T03:08:49;18.30;99.90
21811;DHT22;11067;48.788;9.208;2023-07-20T03:11:17;18.30;99.90
21811;DHT22;11067;48.788;9.208;2023-07-20T03:13:44;18.40;99.90
21811;DHT22;11067;48.788;9.208;2023-07-20T03:16:11;18.40;99.90
21811;DHT22;11067;48.788;9.208;2023-07-20T03:18:38;18.40;99.90
21811;DHT22;11067;48.788;9.208;2023-07-20T03:21:04;18.30;99.90
21811;DHT22;11067;48.788;9.208;2023-07-20T03:23:30;18.30;99.90
21811;DHT22;11067;48.788;9.208;2023-07-20T03:25:56;18.30;99.90
21811;DHT22;11067;48.788;9.208;2023-07-20T03:28:21;18.30;99.90
21811;DHT22;11067;48.788;9.208;2023-07-20T03:30:56;18.30;99.90
21811;DHT22;11067;48.788;9.208;2023-07-20T03:33:31;18.30;99.90
21811;DHT22;11067;48.788;9.208;2023-07-20T03:35:57;18.20;99.90
21811;DHT22;11067;48.788;9.208;2023-07-20T03:38:24;18.20;99.90
21811;DHT22;11067;48.788;9.208;2023-07-20T03:40:55;18.20;99.90
21811;DHT22;11067;48.788;9.208;2023-07-20T03:43:22;18.20;99.90
21811;DHT22;11067;48.788;9.208;2023-07-20T03:45:48;18.20;99.90
21811;DHT22;11067;48.788;9.208;2023-07-20T03:48:16;18.10;99.90
21811;DHT22;11067;48.788;9.208;2023-07-20T03:50:43;18.10;99.90
21811;DHT22;11067;48.788;9.208;2023-07-20T03:53:09;18.00;99.90
21811;DHT22;11067;48.788;9.208;2023-07-20T03:55:34;18.00;99.90
21811;DHT22;11067;48.788;9.208;2023-07-20T03:58:00;17.90;99.90
21811;DHT22;11067;48.788;9.208;2023-07-20T04:00:25;17.90;99.90
21811;DHT22;11067;48.788;9.208;2023-07-20T04:02:51;17.90;99.90
21811;DHT22;11067;48.788;9.208;2023-07-20T04:05:16;17.80;99.90
21811;DHT22;11067;48.788;9.208;2023-07-20T04:07:42;17.80;99.90
21811;DHT22;11067;48.788;9.208;2023-07-20T04:10:08;17.80;99.90
21811;DHT22;11067;48.788;9.208;2023-07-20T04:12:34;17.90;99.90
21811;DHT22;11067;48.788;9.208;2023-07-20T04:14:59;17.90;99.90
21811;DHT22;11067;48.788;9.208;2023-07-20T04:17:26;18.00;99.90
21811;DHT22;11067;48.788;9.208;2023-07-20T04:19:51;18.00;99.90
21811;DHT22;11067;48.788;9.208;2023-07-20T04:22:16;18.10;99.90
21811;DHT22;11067;48.788;9.208;2023-07-20T04:24:42;18.10;99.90
21811;DHT22;11067;48.788;9.208;2023-07-20T04:27:08;18.20;99.90
21811;DHT22;11067;48.788;9.208;2023-07-20T04:29:34;18.20;99.90
21811;DHT22;11067;48.788;9.208;2023-07-20T04:31:59;18.30;99.90
21811;DHT22;11067;48.788;9.208;2023-07-20T04:34:25;18.40;99.90
21811;DHT22;11067;48.788;9.208;2023-07-20T04:36:50;18.40;99.90
21811;DHT22;11067;48.788;9.208;2023-07-20T04:39:16;18.40;99.90
21811;DHT22;11067;48.788;9.208;2023-07-20T04:41:42;18.60;99.90
21811;DHT22;11067;48.788;9.208;2023-07-20T04:44:08;18.60;99.90
21811;DHT22;11067;48.788;9.208;2023-07-20T04:46:33;18.70;99.90
21811;DHT22;11067;48.788;9.208;2023-07-20T04:48:59;19.10;99.90
21811;DHT22;11067;48.788;9.208;2023-07-20T04:51:24;19.40;99.90
21811;DHT22;11067;48.788;9.208;2023-07-20T04:53:50;20.00;99.90
21811;DHT22;11067;48.788;9.208;2023-07-20T04:56:15;20.20;99.90
21811;DHT22;11067;48.788;9.208;2023-07-20T04:58:41;20.40;99.90
21811;DHT22;11067;48.788;9.208;2023-07-20T05:01:08;20.60;99.90
21811;DHT22;11067;48.788;9.208;2023-07-20T05:03:33;20.40;99.90
21811;DHT22;11067;48.788;9.208;2023-07-20T05:05:59;20.50;99.90
21811;DHT22;11067;48.788;9.208;2023-07-20T05:08:25;20.80;99.90
21811;DHT22;11067;48.788;9.208;2023-07-20T05:10:50;21.30;99.90
21811;DHT22;11067;48.788;9.208;2023-07-20T05:13:16;21.40;99.90
21811;DHT22;11067;48.788;9.208;2023-07-20T05:15:42;21.60;99.90
21811;DHT22;11067;48.788;9.208;2023-07-20T05:18:07;21.80;99.90
21811;DHT22;11067;48.788;9.208;2023-07-20T05:20:34;21.80;99.90
21811;DHT22;11067;48.788;9.208;2023-07-20T05:23:00;21.20;99.90
21811;DHT22;11067;48.788;9.208;2023-07-20T05:25:26;21.70;99.90
21811;DHT22;11067;48.788;9.208;2023-07-20T05:27:52;21.60;99.90
21811;DHT22;11067;48.788;9.208;2023-07-20T05:30:18;21.90;99.90
21811;DHT22;11067;48.788;9.208;2023-07-20T05:32:44;21.90;99.90
21811;DHT22;11067;48.788;9.208;2023-07-20T05:35:12;22.00;99.90
21811;DHT22;11067;48.788;9.208;2023-07-20T05:37:39;22.20;99.90
21811;DHT22;11067;48.788;9.208;2023-07-20T05:40:05;22.10;99.90
21811;DHT22;11067;48.788;9.208;2023-07-20T05:42:33;22.00;99.90
21811;DHT22;11067;48.788;9.208;2023-07-20T05:44:58;22.80;99.90
21811;DHT22;11067;48.788;9.208;2023-07-20T05:47:24;23.20;99.90
21811;DHT22;11067;48.788;9.208;2023-07-20T05:49:49;23.00;99.90
21811;DHT22;11067;48.788;9.208;2023-07-20T05:52:15;22.50;99.90
21811;DHT22;11067;48.788;9.208;2023-07-20T05:54:40;22.30;99.90
21811;DHT22;11067;48.788;9.208;2023-07-20T05:57:06;22.40;99.90
21811;DHT22;11067;48.788;9.208;2023-07-20T05:59:32;23.40;99.90
21811;DHT22;11067;48.788;9.208;2023-07-20T06:01:57;24.30;99.90
21811;DHT22;11067;48.788;9.208;2023-07-20T06:04:23;24.00;99.90
21811;DHT22;11067;48.788;9.208;2023-07-20T06:06:49;24.40;99.90
21811;DHT22;11067;48.788;9.208;2023-07-20T06:09:14;24.60;99.90
21811;DHT22;11067;48.788;9.208;2023-07-20T06:11:40;24.90;99.90
21811;DHT22;11067;48.788;9.208;2023-07-20T06:14:05;24.00;99.90
21811;DHT22;11067;48.788;9.208;2023-07-20T06:16:31;23.60;99.90
21811;DHT22;11067;48.788;9.208;2023-07-20T06:18:56;23.50;99.90
21811;DHT22;11067;48.788;9.208;2023-07-20T06:21:22;23.40;99.90
21811;DHT22;11067;48.788;9.208;2023-07-20T06:23:48;22.90;99.90
21811;DHT22;11067;48.788;9.208;2023-07-20T06:26:13;22.60;99.90
21811;DHT22;11067;48.788;9.208;2023-07-20T06:28:39;22.20;99.90
21811;DHT22;11067;48.788;9.208;2023-07-20T06:31:05;22.00;99.90
21811;DHT22;11067;48.788;9.208;2023-07-20T06:33:30;22.20;99.90
21811;DHT22;11067;48.788;9.208;2023-07-20T06:35:56;22.50;99.90
21811;DHT22;11067;48.788;9.208;2023-07-20T06:38:23;22.10;99.90
21811;DHT22;11067;48.788;9.208;2023-07-20T06:40:51;22.30;99.90
21811;DHT22;11067;48.788;9.208;2023-07-20T06:43:17;22.00;99.90
21811;DHT22;11067;48.788;9.208;2023-07-20T06:45:43;21.80;99.90
21811;DHT22;11067;48.788;9.208;2023-07-20T06:48:09;22.40;99.90
21811;DHT22;11067;48.788;9.208;2023-07-20T06:50:35;23.00;99.90
21811;DHT22;11067;48.788;9.208;2023-07-20T06:53:00;22.80;99.90
21811;DHT22;11067;48.788;9.208;2023-07-20T06:55:28;22.40;99.90
21811;DHT22;11067;48.788;9.208;2023-07-20T06:57:54;22.30;99.90
21811;DHT22;11067;48.788;9.208;2023-07-20T07:00:19;22.70;99.90
21811;DHT22;11067;48.788;9.208;2023-07-20T07:02:45;23.40;99.90
21811;DHT22;11067;48.788;9.208;2023-07-20T07:05:11;23.60;99.90
21811;DHT22;11067;48.788;9.208;2023-07-20T07:07:37;23.70;99.90
21811;DHT22;11067;48.788;9.208;2023-07-20T07:10:03;23.20;99.90
21811;DHT22;11067;48.788;9.208;2023-07-20T07:12:30;23.30;99.90
21811;DHT22;11067;48.788;9.208;2023-07-20T07:14:56;23.50;99.90
21811;DHT22;11067;48.788;9.208;2023-07-20T07:17:22;23.80;99.90
21811;DHT22;11067;48.788;9.208;2023-07-20T07:19:47;23.80;99.90
21811;DHT22;11067;48.788;9.208;2023-07-20T07:22:13;23.80;99.90
21811;DHT22;11067;48.788;9.208;2023-07-20T07:24:39;23.30;99.90
21811;DHT22;11067;48.788;9.208;2023-07-20T07:27:07;23.40;99.90
21811;DHT22;11067;48.788;9.208;2023-07-20T07:29:33;23.30;99.90
21811;DHT22;11067;48.788;9.208;2023-07-20T07:31:59;23.00;99.90
21811;DHT22;11067;48.788;9.208;2023-07-20T07:34:24;22.90;99.90
21811;DHT22;11067;48.788;9.208;2023-07-20T07:36:50;22.90;99.90
21811;DHT22;11067;48.788;9.208;2023-07-20T07:39:16;22.60;99.90
21811;DHT22;11067;48.788;9.208;2023-07-20T07:41:41;23.20;99.90
21811;DHT22;11067;48.788;9.208;2023-07-20T07:44:07;23.10;99.90
21811;DHT22;11067;48.788;9.208;2023-07-20T07:46:32;23.30;99.90
21811;DHT22;11067;48.788;9.208;2023-07-20T07:48:58;23.30;99.90
21811;DHT22;11067;48.788;9.208;2023-07-20T07:51:24;23.40;99.90
21811;DHT22;11067;48.788;9.208;2023-07-20T07:53:49;22.90;99.90
21811;DHT22;11067;48.788;9.208;2023-07-20T07:56:15;23.20;99.90
21811;DHT22;11067;48.788;9.208;2023-07-20T07:58:42;23.10;99.90
21811;DHT22;11067;48.788;9.208;2023-07-20T08:01:07;23.30;99.90
21811;DHT22;11067;48.788;9.208;2023-07-20T08:03:33;23.70;99.90
21811;DHT22;11067;48.788;9.208;2023-07-20T08:05:59;23.80;99.90
21811;DHT22;11067;48.788;9.208;2023-07-20T08:08:25;23.50;99.90
21811;DHT22;11067;48.788;9.208;2023-07-20T08:10:53;23.60;99.90
21811;DHT22;11067;48.788;9.208;2023-07-20T08:13:19;23.50;99.90
21811;DHT22;11067;48.788;9.208;2023-07-20T08:15:49;24.10;99.90
21811;DHT22;11067;48.788;9.208;2023-07-20T08:18:15;23.80;99.90
21811;DHT22;11067;48.788;9.208;2023-07-20T08:20:44;24.00;99.90
21811;DHT22;11067;48.788;9.208;2023-07-20T08:23:09;23.80;99.90
21811;DHT22;11067;48.788;9.208;2023-07-20T08:25:36;23.50;99.90
21811;DHT22;11067;48.788;9.208;2023-07-20T08:28:04;23.10;99.90
21811;DHT22;11067;48.788;9.208;2023-07-20T08:30:43;23.10;99.90
21811;DHT22;11067;48.788;9.208;2023-07-20T08:33:18;23.20;99.90
21811;DHT22;11067;48.788;9.208;2023-07-20T08:35:45;22.90;99.90
21811;DHT22;11067;48.788;9.208;2023-07-20T08:38:10;23.00;99.90
21811;DHT22;11067;48.788;9.208;2023-07-20T08:40:41;22.60;99.90
21811;DHT22;11067;48.788;9.208;2023-07-20T08:43:07;22.50;99.90
21811;DHT22;11067;48.788;9.208;2023-07-20T08:45:33;22.70;99.90
21811;DHT22;11067;48.788;9.208;2023-07-20T08:48:01;22.20;99.90
21811;DHT22;11067;48.788;9.208;2023-07-20T08:50:30;22.50;99.90
21811;DHT22;11067;48.788;9.208;2023-07-20T08:52:57;22.50;99.90
21811;DHT22;11067;48.788;9.208;2023-07-20T08:55:24;22.70;99.90
21811;DHT22;11067;48.788;9.208;2023-07-20T08:57:50;22.90;99.90
21811;DHT22;11067;48.788;9.208;2023-07-20T09:00:20;22.80;99.90
21811;DHT22;11067;48.788;9.208;2023-07-20T09:02:46;23.10;99.90
21811;DHT22;11067;48.788;9.208;2023-07-20T09:05:12;23.30;99.90
21811;DHT22;11067;48.788;9.208;2023-07-20T09:07:40;23.00;99.90
21811;DHT22;11067;48.788;9.208;2023-07-20T09:10:06;22.70;99.90
21811;DHT22;11067;48.788;9.208;2023-07-20T09:12:39;23.00;99.90
21811;DHT22;11067;48.788;9.208;2023-07-20T09:15:06;23.00;99.90
21811;DHT22;11067;48.788;9.208;2023-07-20T09:17:32;22.90;99.90
21811;DHT22;11067;48.788;9.208;2023-07-20T09:19:58;22.80;99.90
21811;DHT22;11067;48.788;9.208;2023-07-20T09:22:30;23.20;99.90
21811;DHT22;11067;48.788;9.208;2023-07-20T09:24:56;23.00;99.90
21811;DHT22;11067;48.788;9.208;2023-07-20T09:27:24;23.00;99.90
21811;DHT22;11067;48.788;9.208;2023-07-20T09:29:54;23.60;99.20
21811;DHT22;11067;48.788;9.208;2023-07-20T09:32:22;23.40;98.40
21811;DHT22;11067;48.788;9.208;2023-07-20T09:34:49;23.80;97.60
21811;DHT22;11067;48.788;9.208;2023-07-20T09:37:22;23.80;98.80
21811;DHT22;11067;48.788;9.208;2023-07-20T09:39:51;23.20;99.90
21811;DHT22;11067;48.788;9.208;2023-07-20T09:42:17;23.30;99.90
21811;DHT22;11067;48.788;9.208;2023-07-20T09:44:44;22.90;99.90
21811;DHT22;11067;48.788;9.208;2023-07-20T09:47:10;22.90;99.90
21811;DHT22;11067;48.788;9.208;2023-07-20T09:49:39;22.90;99.90
21811;DHT22;11067;48.788;9.208;2023-07-20T09:52:07;23.00;99.90
21811;DHT22;11067;48.788;9.208;2023-07-20T09:54:33;23.30;98.50
21811;DHT22;11067;48.788;9.208;2023-07-20T09:57:00;23.70;98.20
21811;DHT22;11067;48.788;9.208;2023-07-20T09:59:28;24.20;96.50
21811;DHT22;11067;48.788;9.208;2023-07-20T10:01:57;24.00;95.70
21811;DHT22;11067;48.788;9.208;2023-07-20T10:04:23;23.50;96.30
21811;DHT22;11067;48.788;9.208;2023-07-20T10:06:52;23.20;97.00
21811;DHT22;11067;48.788;9.208;2023-07-20T10:09:20;23.40;97.60
21811;DHT22;11067;48.788;9.208;2023-07-20T10:11:50;23.40;96.90
21811;DHT22;11067;48.788;9.208;2023-07-20T10:14:19;23.50;95.50
21811;DHT22;11067;48.788;9.208;2023-07-20T10:16:53;23.50;94.90
21811;DHT22;11067;48.788;9.208;2023-07-20T10:19:27;23.30;95.50
21811;DHT22;11067;48.788;9.208;2023-07-20T10:22:03;23.60;94.90
21811;DHT22;11067;48.788;9.208;2023-07-20T10:24:29;23.70;95.10
21811;DHT22;11067;48.788;9.208;2023-07-20T10:26:57;23.60;93.40
21811;DHT22;11067;48.788;9.208;2023-07-20T10:29:23;23.80;91.90
21811;DHT22;11067;48.788;9.208;2023-07-20T10:31:49;23.80;90.30
21811;DHT22;11067;48.788;9.208;2023-07-20T10:34:15;24.00;90.60
21811;DHT22;11067;48.788;9.208;2023-07-20T10:36:45;24.10;91.00
21811;DHT22;11067;48.788;9.208;2023-07-20T10:39:25;24.30;90.90
21811;DHT22;11067;48.788;9.208;2023-07-20T10:42:00;24.40;89.10
21811;DHT22;11067;48.788;9.208;2023-07-20T10:44:26;24.80;88.10
21811;DHT22;11067;48.788;9.208;2023-07-20T10:46:59;24.70;86.20
21811;DHT22;11067;48.788;9.208;2023-07-20T10:49:25;24.70;87.60
21811;DHT22;11067;48.788;9.208;2023-07-20T10:51:57;24.90;84.60
21811;DHT22;11067;48.788;9.208;2023-07-20T10:56:50;24.30;86.10
21811;DHT22;11067;48.788;9.208;2023-07-20T11:01:55;24.40;84.60
21811;DHT22;11067;48.788;9.208;2023-07-20T11:04:41;24.60;84.00
21811;DHT22;11067;48.788;9.208;2023-07-20T11:07:06;24.20;84.60
21811;DHT22;11067;48.788;9.208;2023-07-20T11:09:38;24.40;82.50
21811;DHT22;11067;48.788;9.208;2023-07-20T11:12:14;24.50;82.20
21811;DHT22;11067;48.788;9.208;2023-07-20T11:14:54;24.30;82.20
21811;DHT22;11067;48.788;9.208;2023-07-20T11:17:20;23.90;82.60
21811;DHT22;11067;48.788;9.208;2023-07-20T11:19:55;24.20;83.70
21811;DHT22;11067;48.788;9.208;2023-07-20T11:22:21;24.30;80.20
21811;DHT22;11067;48.788;9.208;2023-07-20T11:24:47;24.20;79.00
21811;DHT22;11067;48.788;9.208;2023-07-20T11:27:14;24.60;77.80
21811;DHT22;11067;48.788;9.208;2023-07-20T11:29:40;24.50;76.00
21811;DHT22;11067;48.788;9.208;2023-07-20T11:32:05;24.50;77.00
21811;DHT22;11067;48.788;9.208;2023-07-20T11:34:32;24.50;76.70
21811;DHT22;11067;48.788;9.208;2023-07-20T11:36:58;24.60;76.90
21811;DHT22;11067;48.788;9.208;2023-07-20T11:39:24;24.60;77.00
21811;DHT22;11067;48.788;9.208;2023-07-20T11:41:52;24.90;77.10
21811;DHT22;11067;48.788;9.208;2023-07-20T11:44:20;24.80;74.90
21811;DHT22;11067;48.788;9.208;2023-07-20T11:46:59;24.50;75.60
21811;DHT22;11067;48.788;9.208;2023-07-20T11:49:25;24.80;76.90
21811;DHT22;11067;48.788;9.208;2023-07-20T11:51:51;24.80;75.80
21811;DHT22;11067;48.788;9.208;2023-07-20T11:54:16;25.00;75.90
21811;DHT22;11067;48.788;9.208;2023-07-20T11:56:42;24.80;73.10
21811;DHT22;11067;48.788;9.208;2023-07-20T11:59:08;24.80;72.90
21811;DHT22;11067;48.788;9.208;2023-07-20T12:01:33;24.50;73.10
21811;DHT22;11067;48.788;9.208;2023-07-20T12:04:02;24.70;72.40
21811;DHT22;11067;48.788;9.208;2023-07-20T12:06:28;24.80;71.60
21811;DHT22;11067;48.788;9.208;2023-07-20T12:08:56;25.00;68.90
21811;DHT22;11067;48.788;9.208;2023-07-20T12:11:35;24.50;71.20
21811;DHT22;11067;48.788;9.208;2023-07-20T12:14:01;24.30;69.40
21811;DHT22;11067;48.788;9.208;2023-07-20T12:16:27;24.30;68.70
21811;DHT22;11067;48.788;9.208;2023-07-20T12:19:01;24.20;68.40
21811;DHT22;11067;48.788;9.208;2023-07-20T12:21:28;24.90;69.50
21811;DHT22;11067;48.788;9.208;2023-07-20T12:23:56;24.60;66.00
21811;DHT22;11067;48.788;9.208;2023-07-20T12:26:22;25.00;64.20
21811;DHT22;11067;48.788;9.208;2023-07-20T12:28:49;25.00;65.00
21811;DHT22;11067;48.788;9.208;2023-07-20T12:31:15;24.90;63.50
21811;DHT22;11067;48.788;9.208;2023-07-20T12:33:41;25.10;63.20
21811;DHT22;11067;48.788;9.208;2023-07-20T12:36:08;25.20;63.60
21811;DHT22;11067;48.788;9.208;2023-07-20T12:38:33;25.50;63.70
21811;DHT22;11067;48.788;9.208;2023-07-20T12:41:01;25.20;62.20
21811;DHT22;11067;48.788;9.208;2023-07-20T12:43:26;25.20;63.40
21811;DHT22;11067;48.788;9.208;2023-07-20T12:45:52;25.30;65.50
21811;DHT22;11067;48.788;9.208;2023-07-20T12:48:18;25.00;67.20
21811;DHT22;11067;48.788;9.208;2023-07-20T12:50:43;25.30;68.10
21811;DHT22;11067;48.788;9.208;2023-07-20T12:53:09;25.30;65.10
21811;DHT22;11067;48.788;9.208;2023-07-20T12:55:35;24.80;65.60
21811;DHT22;11067;48.788;9.208;2023-07-20T12:58:00;25.10;66.70
21811;DHT22;11067;48.788;9.208;2023-07-20T13:00:26;25.10;67.30
21811;DHT22;11067;48.788;9.208;2023-07-20T13:02:52;25.60;63.40
21811;DHT22;11067;48.788;9.208;2023-07-20T13:05:18;25.70;62.20
21811;DHT22;11067;48.788;9.208;2023-07-20T13:07:43;25.50;62.00
21811;DHT22;11067;48.788;9.208;2023-07-20T13:10:10;25.10;62.30
21811;DHT22;11067;48.788;9.208;2023-07-20T13:12:37;25.30;61.70
21811;DHT22;11067;48.788;9.208;2023-07-20T13:15:04;24.90;61.10
21811;DHT22;11067;48.788;9.208;2023-07-20T13:17:34;25.10;61.80
21811;DHT22;11067;48.788;9.208;2023-07-20T13:19:59;25.00;60.80
21811;DHT22;11067;48.788;9.208;2023-07-20T13:22:25;25.30;61.40
21811;DHT22;11067;48.788;9.208;2023-07-20T13:24:52;25.50;60.50
21811;DHT22;11067;48.788;9.208;2023-07-20T13:27:18;25.10;59.40
21811;DHT22;11067;48.788;9.208;2023-07-20T13:29:44;25.50;61.70
21811;DHT22;11067;48.788;9.208;2023-07-20T13:32:10;25.50;58.20
21811;DHT22;11067;48.788;9.208;2023-07-20T13:34:35;25.90;58.40
21811;DHT22;11067;48.788;9.208;2023-07-20T13:37:01;25.90;57.30
21811;DHT22;11067;48.788;9.208;2023-07-20T13:39:27;25.70;57.20
21811;DHT22;11067;48.788;9.208;2023-07-20T13:41:54;25.50;56.70
21811;DHT22;11067;48.788;9.208;2023-07-20T13:44:20;25.60;56.20
21811;DHT22;11067;48.788;9.208;2023-07-20T13:46:46;25.70;56.30
21811;DHT22;11067;48.788;9.208;2023-07-20T13:49:12;25.50;56.80
21811;DHT22;11067;48.788;9.208;2023-07-20T13:51:37;25.50;56.90
21811;DHT22;11067;48.788;9.208;2023-07-20T13:54:03;25.60;56.70
21811;DHT22;11067;48.788;9.208;2023-07-20T13:56:29;25.70;56.40
21811;DHT22;11067;48.788;9.208;2023-07-20T13:58:54;25.90;56.10
21811;DHT22;11067;48.788;9.208;2023-07-20T14:01:20;25.60;55.30
21811;DHT22;11067;48.788;9.208;2023-07-20T14:03:48;25.00;55.80
21811;DHT22;11067;48.788;9.208;2023-07-20T14:06:14;25.50;57.30
21811;DHT22;11067;48.788;9.208;2023-07-20T14:08:40;26.00;56.80
21811;DHT22;11067;48.788;9.208;2023-07-20T14:11:06;25.70;56.70
21811;DHT22;11067;48.788;9.208;2023-07-20T14:13:32;26.10;55.80
21811;DHT22;11067;48.788;9.208;2023-07-20T14:15:58;26.00;55.80
21811;DHT22;11067;48.788;9.208;2023-07-20T14:18:24;25.50;54.40
21811;DHT22;11067;48.788;9.208;2023-07-20T14:20:49;25.60;55.60
21811;DHT22;11067;48.788;9.208;2023-07-20T14:23:15;25.90;56.50
21811;DHT22;11067;48.788;9.208;2023-07-20T14:25:40;26.20;55.40
21811;DHT22;11067;48.788;9.208;2023-07-20T14:28:07;25.60;54.40
21811;DHT22;11067;48.788;9.208;2023-07-20T14:30:33;25.80;55.60
21811;DHT22;11067;48.788;9.208;2023-07-20T14:32:58;25.60;54.10
21811;DHT22;11067;48.788;9.208;2023-07-20T14:35:24;26.00;54.60
21811;DHT22;11067;48.788;9.208;2023-07-20T14:37:49;26.10;53.50
21811;DHT22;11067;48.788;9.208;2023-07-20T14:40:15;26.00;52.90
21811;DHT22;11067;48.788;9.208;2023-07-20T14:42:41;25.60;51.30
21811;DHT22;11067;48.788;9.208;2023-07-20T14:45:07;25.80;52.70
21811;DHT22;11067;48.788;9.208;2023-07-20T14:47:33;25.90;51.20
21811;DHT22;11067;48.788;9.208;2023-07-20T14:50:01;26.00;51.10
21811;DHT22;11067;48.788;9.208;2023-07-20T14:52:27;26.10;50.80
21811;DHT22;11067;48.788;9.208;2023-07-20T14:54:53;26.00;50.20
21811;DHT22;11067;48.788;9.208;2023-07-20T14:57:19;26.00;51.70
21811;DHT22;11067;48.788;9.208;2023-07-20T14:59:46;25.90;50.00
21811;DHT22;11067;48.788;9.208;2023-07-20T15:02:12;26.20;51.00
21811;DHT22;11067;48.788;9.208;2023-07-20T15:04:39;26.20;49.70
21811;DHT22;11067;48.788;9.208;2023-07-20T15:07:10;26.20;49.30
21811;DHT22;11067;48.788;9.208;2023-07-20T15:09:35;26.00;48.40
21811;DHT22;11067;48.788;9.208;2023-07-20T15:12:01;26.00;48.60
21811;DHT22;11067;48.788;9.208;2023-07-20T15:14:27;25.90;47.70
21811;DHT22;11067;48.788;9.208;2023-07-20T15:16:52;25.90;48.50
21811;DHT22;11067;48.788;9.208;2023-07-20T15:19:18;25.80;49.10
21811;DHT22;11067;48.788;9.208;2023-07-20T15:21:43;26.20;49.90
21811;DHT22;11067;48.788;9.208;2023-07-20T15:24:09;26.40;48.80
21811;DHT22;11067;48.788;9.208;2023-07-20T15:26:34;25.80;48.60
21811;DHT22;11067;48.788;9.208;2023-07-20T15:29:00;25.90;48.90
21811;DHT22;11067;48.788;9.208;2023-07-20T15:31:25;26.10;49.80
21811;DHT22;11067;48.788;9.208;2023-07-20T15:33:51;26.10;49.40
21811;DHT22;11067;48.788;9.208;2023-07-20T15:36:17;26.40;49.60
21811;DHT22;11067;48.788;9.208;2023-07-20T15:38:43;26.00;49.40
21811;DHT22;11067;48.788;9.208;2023-07-20T15:41:08;25.80;49.80